Quantcast
Maps Points of Interest Search F.A.Q. Tutorial Download Forums About us

Chardok - East

Enter a custom location to show on the map:
  custom loc 
58 POI's in Chardok - East
UID Name Type /Loc Submitter Date
65063 Warlord Kilrok Caroeth Monster Named 202.01, -72.91, 73.80 Adaefia 05/26/17
64283 Entrance to the Palace Area Site 195.64, -20.04, 217.00 Elfrina 10/13/16
60798 Insta-Fizz Fuzzlecutter Object location -546.44, -68.47, 241.38 FieryArcher 11/15/13
58470 Totem of Iar'Xis Quest update location -429.31, -127.14, -47.00 Ventnoir 10/21/12
58469 Totem of Iar'Efiv Quest update location -419.19, -65.71, 30.69 Ventnoir 10/21/12
58468 Totem of Iar'Rofu Quest update location -419.20, -65.61, -17.19 Ventnoir 10/21/12
57253 Ewer Object location -513.43, -87.31, -359.43 jhogan1975 05/11/12
57252 Blasting Keg Object location -548.43, -85.66, -337.03 jhogan1975 05/11/12
56095 The Bridge Keeper Quest update NPC -442.84, -66.07, -23.60 ultramagnuss 02/27/12
56080 A Caroeth gatekeeper Monster Solo 203.46, -72.95, 85.03 uberfuzzy 02/25/12
55977 A Drenched Zombie Swash Epic Monster Solo -482.79, -85.66, -335.77 Galicus 02/13/12
54802 Bridge Path to the Court of Korcust Object location -418.79, -65.29, 125.02 Elfrina 07/19/11
54611 Totem of Iar'Ethre Quest update location -74.05, -18.56, -281.03 Liandra 06/19/11
54609 Totem of Iar'Owt Quest update location -95.73, -18.56, -307.91 Liandra 06/19/11
54607 Totem of Ian'Eno Quest update location -73.54, -18.28, -319.90 Liandra 06/19/11
53976 The Barracks of Bathezid Site -276.96, -20.42, -492.88 Lera 03/27/11
53975 a Bathezid aerodrome sentry Monster Heroic 28.95, -29.78, -328.05 Lera 03/27/11
53974 The Aerodrome Site -64.62, -17.70, -300.89 Lera 03/27/11
53973 The Wind Chamber Site 84.50, 4.37, -509.07 Lera 03/27/11
52645 caroeth ridgeguard assassin Monster Heroic 168.58, -24.89, 214.74 Prrfect 01/20/11
52644 Caroeth ridgeguard assassin Monster Heroic 91.65, -48.13, 25.25 Prrfect 01/20/11
49656 Nak'Azar Gatekeeper Monster Heroic -400.00, -64.00, 15.00 Jacu 03/23/10
47480 Insta-Fizz Fuzzlecutter Object location -5.00, -58.00, 83.00 Lethiana 11/04/09
44683 a syrrup barrel Object location 141.00, -55.00, 67.00 1stop4 10/17/09
42886 Red Crystal Gate Object location 106.10, -46.06, 182.01 mulder09 05/27/09
39968 Fizzlecutter Insta-Fizz Object location -439.76, -87.02, 13.63 Lethiana 12/13/08
38934 Insta-Fizz Fuzzlecutter Quest update location -422.00, -115.00, 15.00 Lethiana 11/19/08
38879 Insta-Fizz Fuzzlecutter Quest update location -87.00, -43.00, 63.00 Lethiana 11/19/08
38878 Insta-Fizz Fuzzlercutter Quest update location -299.00, -20.00, -539.00 Lethiana 11/19/08
38877 Insta-Fizz Fuzzlecutter Quest update location -356.00, -17.00, -548.00 Lethiana 11/19/08
38876 Insta-Fizz Fuzzlecutter Quest update location -334.00, -17.00, -563.00 Lethiana 11/19/08
35440 The Chardok Trampler Monster Named -440.00, -67.00, -240.00 shiromvp 06/27/08
35407 The Reservoir Defender Monster Named -515.00, -87.00, -331.00 shiromvp 06/23/08
35028 Master Skyrider Koonzid Monster Named -74.67, -17.10, -300.80 shiromvp 04/12/08
35010 Wildhorn the Rampager Monster Named -372.06, -55.85, -358.50 Aeudian 04/06/08
35009 Wildhorn the Rampager Monster Named -372.06, -55.85, -358.50 Aeudian 04/06/08
34727 Green Gate Object location -240.00, 0.00, -335.00 Phlix 02/22/08
34678 Hand of the Metal God Object location -34.00, -54.00, 40.00 mschaos 02/14/08
34677 Eye of Gorowyn Object location -391.00, -103.00, -2.00 mschaos 02/14/08
34676 Flame of Shazzuk Object location 32.00, -23.00, -458.00 mschaos 02/14/08
34675 Statue of Thi'zok Object location -352.00, -18.00, -541.00 mschaos 02/14/08
34666 Blue Crystal Gate Object location -244.00, -62.00, 4.00 Artemiz 02/13/08
34502 Horn of Vul Object location 59.00, 6.00, -394.00 Draakthor 01/24/08
34501 Horn of Kab Object location 4.00, 6.00, -521.00 Draakthor 01/24/08
34500 Horn of Myr Object location -32.00, 6.00, -484.00 Draakthor 01/24/08
34499 Horn of Roehn Object location -32.00, 6.00, -430.00 Draakthor 01/24/08
34498 Horn of Uzu Object location 5.00, 6.00, -393.00 Draakthor 01/24/08
34450 The Temple of Kor-Sha Zone -421.00, -150.00, -112.00 Triple 01/17/08
34447 Warlord Hir'roul Monster Named -393.64, -64.05, 9.08 shiromvp 01/16/08
34446 The Malefic Formation Monster Named 39.41, -23.30, -455.69 shiromvp 01/16/08
34306 NAKAZAR Cavern Cave entrance -386.60, -62.93, 36.61 Rapideyez 12/31/07
34096 Nak'azar Cavern Sokokar Post Object location -467.20, -66.74, -72.97 votary 12/12/07
34095 Chardok Entrance Sokokar Post Object location 185.15, 11.58, -667.17 votary 12/12/07
34048 Lore Legend Sarnak (Di'Zok) A quest (Replace) -93.59, -53.28, 75.08 Daiquiry 12/08/07
33935 Court of Korucust Zone -632.28, -68.47, 202.84 barongarrett 12/02/07
33843 A Bathezid Gatekeeper Monster (Replace) -337.91, -18.46, -558.71 Rapideyez 11/29/07
33651 Horn of Zet Object location 97.06, 4.37, -433.00 Wyldchyld 11/23/07
33478 To Kylong Plains Object location 205.00, 10.29, -661.94 Rapideyez 11/19/07

 
Login
Username
Password
Official Project
This is an official community team project supported by EQ2Interface.com
Current Stats
There are currently 32,437 points of interest on 914 maps.

New POIs:
» remnants of a...
  Veeshan's Peak - 1...
» remnants of a...
  Veeshan's Peak - E...
» Goblin Fetish
  Runnyeye Citadel
» Papers
  Runnyeye Citadel
» Xal'Gilah
  Kralet Penumbra: T...
» Teleporter Des...
  Kralet Penumbra: T...
» Servtor of Yot...
  Kralet Penumbra: T...
» Golguth
  Kralet Penumbra: T...
» Sleeble Gimble...
  The Forest Ruins
» Findle Gimblesled
  The Forest Ruins
» Oligar of the...
  Harrow's End (5th...
» Champion's Thr...
  Harrow's End (5th...
» Fitzpitzle (fi...
  Harrow's End (4th...
» Fitzpitzle (3r...
  Harrow's End (4th...
» The Alchemist'...
  Harrow's End (4th...

EQ2Interface
EQ2MAP Copyright ?2004 - Hosted by: EQ2Interface.com
Everquest II is a registered Trademark of Daybreak Game Company.